Aberdeen, New Jersey
Current Conditions -  °F | °C
As of 10:55 AM on Sunday 21 Dec 2014 (Local Time) from KLDJ Reporting Station
Overcast Overcast  
Wind Chill: 32°   Ceiling: 1800
Heat Index: 37°   Visibility: 10mi
Dew Point: 29°   Wind: 7mph
Humidity: 73%   Direction: 350°N
Pressure: 30.34"   Gusts: NA
Location:  40.4118°N, 74.2499°W
Report Text: KLDJ 211555Z AUTO 35006KT 10SM BKN018 OVC025 03/M01 A3034 RMK AO2 T00301014
Loading
Personal Weather Stations






























Interactive Weather Map New forecast layout! Learn more

10-Day Weather Forecast

Advertisements
Track Severe Weather on mobile